createdAt,value
2022-12-01T00:01:19.402Z,102440.47
2022-12-01T00:03:47.246Z,102438.34
2022-12-01T00:06:17.005Z,102428.03
2022-12-01T00:09:06.538Z,102421.09
2022-12-01T00:11:35.820Z,102418.09
2022-12-01T00:14:04.182Z,102412.69
2022-12-01T00:16:32.668Z,102427.09
2022-12-01T00:19:00.566Z,102428.09
2022-12-01T00:21:28.674Z,102438.88
2022-12-01T00:23:58.473Z,102441.56
2022-12-01T00:26:27.328Z,102441.03
2022-12-01T00:28:58.016Z,102448.69
2022-12-01T00:31:26.573Z,102446.44
2022-12-01T00:33:54.632Z,102449.63
2022-12-01T00:36:23.481Z,102448.50
2022-12-01T00:38:53.379Z,102440.47
2022-12-01T00:41:21.111Z,102449.50
2022-12-01T00:43:49.134Z,102450.47
2022-12-01T00:46:18.608Z,102449.50
2022-12-01T00:48:46.349Z,102437.91
2022-12-01T00:51:14.108Z,102463.66
2022-12-01T00:53:41.862Z,102473.09
2022-12-01T00:56:09.602Z,102493.81
2022-12-01T00:58:37.323Z,102492.19
2022-12-01T01:01:05.288Z,102472.66
2022-12-01T01:03:35.386Z,102482.31
2022-12-01T01:06:07.121Z,102502.34
2022-12-01T01:08:36.118Z,102512.44
2022-12-01T01:11:05.034Z,102538.69
2022-12-01T01:13:33.010Z,102540.09
2022-12-01T01:16:01.854Z,102554.84
2022-12-01T01:18:30.101Z,102574.94
2022-12-01T01:21:00.976Z,102594.06
2022-12-01T01:23:28.705Z,102612.97
2022-12-01T01:26:03.246Z,102631.94
2022-12-01T01:28:31.472Z,102620.84
2022-12-01T01:30:59.697Z,102622.19
2022-12-01T01:33:27.519Z,102601.41
2022-12-01T01:35:55.228Z,102573.09
2022-12-01T01:38:24.306Z,102535.16
2022-12-01T01:40:52.023Z,102524.22
2022-12-01T01:43:40.379Z,102485.25
2022-12-01T01:46:11.210Z,102473.78
2022-12-01T01:48:41.630Z,102457.38
2022-12-01T01:51:10.508Z,102455.91
2022-12-01T01:53:39.839Z,102445.25
2022-12-01T01:56:09.785Z,102446.78
2022-12-01T01:58:39.207Z,102449.66
2022-12-01T02:01:07.828Z,102444.19
2022-12-01T02:03:38.225Z,102437.72
2022-12-01T02:06:07.425Z,102424.38
2022-12-01T02:08:38.177Z,102424.03
2022-12-01T02:11:34.667Z,102413.41
2022-12-01T02:14:09.904Z,102416.75
2022-12-01T02:16:45.646Z,102413.38
2022-12-01T02:19:42.136Z,102433.47
2022-12-01T02:22:20.111Z,102434.66
2022-12-01T02:25:13.869Z,102424.88
2022-12-01T02:28:04.034Z,102426.59
2022-12-01T02:30:41.072Z,102427.63
2022-12-01T02:33:17.165Z,102428.28
2022-12-01T02:35:49.581Z,102440.41
2022-12-01T02:38:26.354Z,102423.56
2022-12-01T02:41:02.493Z,102436.88
2022-12-01T02:43:35.340Z,102440.78
2022-12-01T02:46:10.869Z,102435.16
2022-12-01T02:48:42.926Z,102429.69
2022-12-01T02:51:14.740Z,102442.50
2022-12-01T02:53:42.560Z,102438.69
2022-12-01T02:56:13.544Z,102445.69
2022-12-01T02:58:41.603Z,102439.38
2022-12-01T03:01:25.381Z,102445.03
2022-12-01T03:04:02.685Z,102445.47
2022-12-01T03:06:41.865Z,102446.50
2022-12-01T03:09:19.646Z,102440.72
2022-12-01T03:11:56.746Z,102453.25
2022-12-01T03:14:34.350Z,102461.41
2022-12-01T03:17:09.073Z,102457.75
2022-12-01T03:19:42.719Z,102458.56
2022-12-01T03:22:14.694Z,102455.69
2022-12-01T03:24:45.191Z,102448.81
2022-12-01T03:27:16.177Z,102447.53
2022-12-01T03:29:47.815Z,102454.03
2022-12-01T03:32:21.128Z,102453.13
2022-12-01T03:34:52.729Z,102442.13
2022-12-01T03:37:25.287Z,102443.03
2022-12-01T03:40:00.482Z,102438.97
2022-12-01T03:42:34.393Z,102446.63
2022-12-01T03:45:08.525Z,102436.88
2022-12-01T03:47:39.532Z,102449.34
2022-12-01T03:50:13.923Z,102476.78
2022-12-01T03:52:49.527Z,102519.13
2022-12-01T03:55:22.091Z,102542.22
2022-12-01T03:57:55.270Z,102558.25
2022-12-01T04:00:23.800Z,102586.00
2022-12-01T04:02:57.552Z,102581.31
2022-12-01T04:05:26.008Z,102575.00
2022-12-01T04:07:54.382Z,102579.63
2022-12-01T04:10:22.417Z,102600.97
2022-12-01T04:12:49.565Z,102590.50
2022-12-01T04:15:17.869Z,102589.50
2022-12-01T04:17:46.034Z,102594.31
2022-12-01T04:20:16.701Z,102611.31
2022-12-01T04:22:44.603Z,102595.75
2022-12-01T04:25:12.876Z,102614.09
2022-12-01T04:27:40.868Z,102596.53
2022-12-01T04:30:09.694Z,102593.63
2022-12-01T04:32:39.801Z,102570.69
2022-12-01T04:35:08.610Z,102566.09
2022-12-01T04:37:38.116Z,102559.22
2022-12-01T04:40:07.347Z,102577.16
2022-12-01T04:42:35.382Z,102585.75
2022-12-01T04:45:03.169Z,102588.03
2022-12-01T04:47:30.882Z,102603.00
2022-12-01T04:49:58.599Z,102584.75
2022-12-01T04:52:29.463Z,102576.34
2022-12-01T04:55:03.354Z,102562.22
2022-12-01T04:57:31.071Z,102565.63
2022-12-01T04:59:58.768Z,102587.97
2022-12-01T05:02:26.661Z,102598.34
2022-12-01T05:04:54.433Z,102616.47
2022-12-01T05:07:22.209Z,102611.72
2022-12-01T05:09:50.347Z,102604.56
2022-12-01T05:12:19.901Z,102612.53
2022-12-01T05:14:47.653Z,102630.50
2022-12-01T05:17:15.382Z,102622.28
2022-12-01T05:20:09.100Z,102632.78
2022-12-01T05:23:04.298Z,102645.44
2022-12-01T05:25:24.527Z,102670.91
2022-12-01T05:27:53.653Z,102679.84
2022-12-01T05:30:27.012Z,102678.41
2022-12-01T05:32:56.464Z,102685.47
2022-12-01T05:35:24.205Z,102679.00
2022-12-01T05:37:51.908Z,102691.75
2022-12-01T05:40:19.880Z,102697.09
2022-12-01T05:42:47.613Z,102686.84
2022-12-01T05:45:16.993Z,102705.53
2022-12-01T05:47:44.721Z,102678.84
2022-12-01T05:50:12.596Z,102696.28
2022-12-01T05:52:40.351Z,102675.03
2022-12-01T05:55:08.987Z,102678.00
2022-12-01T05:57:36.707Z,102706.59
2022-12-01T06:00:05.934Z,102717.41
2022-12-01T06:02:35.075Z,102709.25
2022-12-01T06:05:02.798Z,102720.03
2022-12-01T06:07:30.777Z,102717.16
2022-12-01T06:09:58.551Z,102718.84
2022-12-01T06:12:26.282Z,102721.44
2022-12-01T06:14:54.050Z,102722.34
2022-12-01T06:17:21.781Z,102695.84
2022-12-01T06:19:51.194Z,102665.25
2022-12-01T06:22:19.053Z,102669.88
2022-12-01T06:24:46.771Z,102656.50
2022-12-01T06:27:14.626Z,102655.91
2022-12-01T06:29:44.862Z,102644.53
2022-12-01T06:32:12.582Z,102633.06
2022-12-01T06:34:40.328Z,102631.81
2022-12-01T06:37:09.397Z,102633.97
2022-12-01T06:39:37.130Z,102628.56
2022-12-01T06:42:05.074Z,102613.88
2022-12-01T06:44:32.807Z,102614.84
2022-12-01T06:47:00.545Z,102602.78
2022-12-01T06:49:28.276Z,102602.31
2022-12-01T06:51:55.992Z,102594.81
2022-12-01T06:54:25.074Z,102598.19
2022-12-01T06:56:52.836Z,102589.44
2022-12-01T06:59:20.930Z,102593.38
2022-12-01T07:01:49.150Z,102586.94
2022-12-01T07:04:17.005Z,102590.78
2022-12-01T07:06:44.764Z,102573.59
2022-12-01T07:09:12.534Z,102581.19
2022-12-01T07:11:41.602Z,102577.00
2022-12-01T07:14:17.967Z,102589.91
2022-12-01T07:16:45.724Z,102585.31
2022-12-01T07:19:13.485Z,102585.25
2022-12-01T07:21:41.416Z,102589.41
2022-12-01T07:24:09.471Z,102592.47
2022-12-01T07:26:37.210Z,102585.81
2022-12-01T07:29:07.659Z,102601.88
2022-12-01T07:31:35.406Z,102594.56
2022-12-01T07:34:03.179Z,102588.31
2022-12-01T07:36:30.917Z,102592.03
2022-12-01T07:39:07.546Z,102574.75
2022-12-01T07:41:35.926Z,102587.66
2022-12-01T07:44:03.875Z,102608.53
2022-12-01T07:46:33.048Z,102601.34
2022-12-01T07:49:00.786Z,102600.22
2022-12-01T07:51:29.005Z,102601.59
2022-12-01T07:53:58.663Z,102605.28
2022-12-01T07:56:28.706Z,102609.50
2022-12-01T07:58:56.694Z,102633.44
2022-12-01T08:01:28.242Z,102634.81
2022-12-01T08:03:59.217Z,102645.81
2022-12-01T08:06:27.669Z,102654.38
2022-12-01T08:08:55.929Z,102651.81
2022-12-01T08:11:25.498Z,102660.06
2022-12-01T08:13:54.188Z,102650.34
2022-12-01T08:16:24.353Z,102639.94
2022-12-01T08:18:52.700Z,102654.97
2022-12-01T08:21:23.467Z,102662.63
2022-12-01T08:23:54.650Z,102653.72
2022-12-01T08:26:23.679Z,102662.69
2022-12-01T08:28:58.894Z,102678.50
2022-12-01T08:31:28.808Z,102696.13
2022-12-01T08:33:56.947Z,102687.97
2022-12-01T08:36:26.644Z,102674.81
2022-12-01T08:38:56.238Z,102683.00
2022-12-01T08:41:25.253Z,102683.63
2022-12-01T08:43:58.343Z,102710.47
2022-12-01T08:46:27.786Z,102729.44
2022-12-01T08:48:57.431Z,102719.25
2022-12-01T08:51:27.405Z,102720.19
2022-12-01T08:53:57.424Z,102732.56
2022-12-01T08:56:28.412Z,102740.31
2022-12-01T08:58:56.678Z,102748.00
2022-12-01T09:01:25.883Z,102752.63
2022-12-01T09:04:05.899Z,102751.75
2022-12-01T09:06:39.462Z,102735.69
2022-12-01T09:09:07.797Z,102739.44
2022-12-01T09:11:35.576Z,102768.38
2022-12-01T09:14:03.369Z,102778.59
2022-12-01T09:16:31.444Z,102800.81
2022-12-01T09:18:59.266Z,102806.59
2022-12-01T09:21:30.385Z,102823.00
2022-12-01T09:23:59.524Z,102848.69
2022-12-01T09:26:28.042Z,102850.88
2022-12-01T09:28:57.857Z,102838.41
2022-12-01T09:31:25.837Z,102868.50
2022-12-01T09:33:56.921Z,102905.25
2022-12-01T09:36:24.846Z,102994.38
2022-12-01T09:38:52.651Z,103001.63
2022-12-01T09:41:25.494Z,102973.50
2022-12-01T09:43:59.694Z,102970.91
2022-12-01T09:46:33.255Z,102950.56
2022-12-01T09:49:03.795Z,102951.50
2022-12-01T09:51:34.842Z,102962.53
2022-12-01T09:54:03.351Z,102953.31
2022-12-01T09:56:37.278Z,102946.97
2022-12-01T09:59:08.670Z,102943.28
2022-12-01T10:01:39.651Z,102939.25
2022-12-01T10:04:13.004Z,102937.63
2022-12-01T10:06:47.476Z,102933.50
2022-12-01T10:09:24.454Z,102938.41
2022-12-01T10:12:00.298Z,102912.06
2022-12-01T10:14:31.107Z,102906.63
2022-12-01T10:17:05.433Z,102899.06
2022-12-01T10:19:40.756Z,102883.94
2022-12-01T10:22:23.728Z,102880.13
2022-12-01T10:24:57.174Z,102883.31
2022-12-01T10:27:44.646Z,102863.75
2022-12-01T10:30:16.854Z,102847.09
2022-12-01T10:32:52.472Z,102816.38
2022-12-01T10:35:22.584Z,102761.97
2022-12-01T10:37:55.614Z,102696.72
2022-12-01T10:40:23.852Z,102673.00
2022-12-01T10:42:53.300Z,102646.69
2022-12-01T10:45:23.955Z,102623.28
2022-12-01T10:48:15.386Z,102630.69
2022-12-01T10:50:44.338Z,102615.88
2022-12-01T10:53:28.544Z,102618.38
2022-12-01T10:56:07.259Z,102635.38
2022-12-01T10:58:44.489Z,102664.56
2022-12-01T11:01:19.146Z,102647.41
2022-12-01T11:03:52.712Z,102629.03
2022-12-01T11:06:26.621Z,102621.06
2022-12-01T11:08:57.910Z,102620.00
2022-12-01T11:11:35.169Z,102625.69
2022-12-01T11:14:06.887Z,102616.00
2022-12-01T11:16:41.605Z,102616.38
2022-12-01T11:19:23.545Z,102612.53
2022-12-01T11:21:56.467Z,102613.38
2022-12-01T11:24:35.724Z,102598.97
2022-12-01T11:27:03.495Z,102582.03
2022-12-01T11:29:36.854Z,102569.41
2022-12-01T11:32:17.165Z,102544.78
2022-12-01T11:34:50.909Z,102534.44
2022-12-01T11:37:21.309Z,102541.31
2022-12-01T11:39:50.378Z,102529.19
2022-12-01T11:42:24.213Z,102521.50
2022-12-01T11:44:56.618Z,102523.00
2022-12-01T11:47:26.519Z,102524.81
2022-12-01T11:49:56.637Z,102532.91
2022-12-01T11:52:28.293Z,102551.59
2022-12-01T11:54:58.024Z,102569.59
2022-12-01T11:57:34.228Z,102578.44
2022-12-01T12:00:14.195Z,102561.84
2022-12-01T12:02:52.359Z,102546.72
2022-12-01T12:05:45.318Z,102548.94
2022-12-01T12:08:24.077Z,102535.03
2022-12-01T12:11:01.938Z,102533.66
2022-12-01T12:13:46.053Z,102536.72
2022-12-01T12:16:21.570Z,102544.34
2022-12-01T12:19:04.393Z,102535.28
2022-12-01T12:21:35.417Z,102521.22
2022-12-01T12:24:25.282Z,102511.25
2022-12-01T12:27:01.459Z,102513.22
2022-12-01T12:29:42.556Z,102519.81
2022-12-01T12:32:38.009Z,102523.97
2022-12-01T12:35:18.997Z,102524.06
2022-12-01T12:37:52.527Z,102532.44
2022-12-01T12:40:37.534Z,102536.94
2022-12-01T12:43:21.003Z,102517.19
2022-12-01T12:46:00.966Z,102519.38
2022-12-01T12:49:18.221Z,102516.81
2022-12-01T12:51:43.612Z,102510.00
2022-12-01T12:54:21.968Z,102517.34
2022-12-01T12:56:55.133Z,102496.06
2022-12-01T12:59:29.211Z,102503.97
2022-12-01T13:02:02.292Z,102502.63
2022-12-01T13:04:40.133Z,102504.63
2022-12-01T13:07:11.834Z,102493.13
2022-12-01T13:09:43.411Z,102495.59
2022-12-01T13:12:15.950Z,102502.16
2022-12-01T13:14:47.452Z,102496.78
2022-12-01T13:17:21.189Z,102486.78
2022-12-01T13:19:50.675Z,102489.59
2022-12-01T13:22:22.881Z,102489.97
2022-12-01T13:24:50.900Z,102486.31
2022-12-01T13:27:22.323Z,102490.34
2022-12-01T13:29:51.725Z,102496.50
2022-12-01T13:32:31.722Z,102496.97
2022-12-01T13:35:02.689Z,102502.63
2022-12-01T13:37:32.916Z,102505.81
2022-12-01T13:40:10.852Z,102502.34
2022-12-01T13:42:39.894Z,102503.78
2022-12-01T13:45:18.395Z,102508.00
2022-12-01T13:47:51.865Z,102514.72
2022-12-01T13:50:56.164Z,102497.63
2022-12-01T13:53:33.003Z,102502.44
2022-12-01T13:56:26.219Z,102488.69
2022-12-01T13:58:55.341Z,102484.16
2022-12-01T14:01:45.854Z,102480.47
2022-12-01T14:04:29.185Z,102489.72
2022-12-01T14:07:20.562Z,102482.09
2022-12-01T14:09:50.388Z,102481.38
2022-12-01T14:12:22.038Z,102479.56
2022-12-01T14:14:55.778Z,102478.59
2022-12-01T14:17:30.486Z,102491.41
2022-12-01T14:20:08.416Z,102487.09
2022-12-01T14:22:40.132Z,102485.41
2022-12-01T14:25:24.341Z,102475.50
2022-12-01T14:27:53.836Z,102475.53
2022-12-01T14:30:58.811Z,102478.47
2022-12-01T14:33:47.491Z,102477.34
2022-12-01T14:36:23.783Z,102472.75
2022-12-01T14:39:00.059Z,102481.72
2022-12-01T14:41:30.740Z,102493.16
2022-12-01T14:44:04.602Z,102493.25
2022-12-01T14:46:40.511Z,102493.81
2022-12-01T14:49:14.090Z,102484.91
2022-12-01T14:51:47.016Z,102491.25
2022-12-01T14:54:24.801Z,102493.16
2022-12-01T14:56:55.902Z,102496.41
2022-12-01T14:59:26.638Z,102499.00
2022-12-01T15:02:08.885Z,102497.16
2022-12-01T15:04:37.578Z,102482.84
2022-12-01T15:07:05.334Z,102485.09
2022-12-01T15:09:35.495Z,102472.41
2022-12-01T15:12:07.350Z,102462.94
2022-12-01T15:14:37.566Z,102465.16
2022-12-01T15:17:06.938Z,102462.16
2022-12-01T15:19:37.698Z,102453.41
2022-12-01T15:22:12.532Z,102446.06
2022-12-01T15:24:42.698Z,102446.63
2022-12-01T15:27:26.012Z,102441.56
2022-12-01T15:29:57.113Z,102445.34
2022-12-01T15:32:26.004Z,102456.06
2022-12-01T15:34:55.751Z,102452.19
2022-12-01T15:37:27.762Z,102443.13
2022-12-01T15:43:02.641Z,102452.03
2022-12-01T15:45:30.459Z,102446.38
2022-12-01T15:47:59.555Z,102444.47
2022-12-01T15:50:31.155Z,102451.00
2022-12-01T15:53:00.293Z,102451.50
2022-12-01T15:55:32.465Z,102449.00
2022-12-01T15:58:01.095Z,102462.47
2022-12-01T16:00:29.146Z,102463.91
2022-12-01T16:03:00.161Z,102465.91
2022-12-01T16:05:31.491Z,102460.31
2022-12-01T16:08:14.216Z,102458.44
2022-12-01T16:10:43.485Z,102463.78
2022-12-01T16:13:45.819Z,102475.22
2022-12-01T16:16:39.070Z,102481.25
2022-12-01T16:19:26.332Z,102469.72
2022-12-01T16:21:57.634Z,102472.25
2022-12-01T16:24:29.833Z,102481.78
2022-12-01T16:27:02.372Z,102476.34
2022-12-01T16:29:32.613Z,102484.16
2022-12-01T16:32:20.146Z,102470.72
2022-12-01T16:34:48.958Z,102481.78
2022-12-01T16:37:17.033Z,102474.25
2022-12-01T16:39:44.945Z,102475.97
2022-12-01T16:42:16.285Z,102473.19
2022-12-01T16:44:44.770Z,102477.72
2022-12-01T16:47:17.674Z,102488.97
2022-12-01T16:49:45.483Z,102483.41
2022-12-01T16:52:43.252Z,102493.66
2022-12-01T16:55:00.956Z,102514.34
2022-12-01T16:57:30.563Z,102521.69
2022-12-01T16:59:58.246Z,102517.97
2022-12-01T17:02:25.972Z,102530.38
2022-12-01T17:04:53.802Z,102539.88
2022-12-01T17:07:21.634Z,102555.78
2022-12-01T17:09:49.388Z,102537.00
2022-12-01T17:12:17.112Z,102533.63
2022-12-01T17:14:46.218Z,102557.03
2022-12-01T17:17:13.938Z,102548.94
2022-12-01T17:19:41.674Z,102565.56
2022-12-01T17:22:09.383Z,102559.81
2022-12-01T17:24:37.148Z,102553.88
2022-12-01T17:27:04.971Z,102564.19
2022-12-01T17:29:32.928Z,102575.59
2022-12-01T17:32:02.037Z,102565.75
2022-12-01T17:34:29.793Z,102574.09
2022-12-01T17:36:57.690Z,102588.47
2022-12-01T17:39:25.375Z,102581.31
2022-12-01T17:41:54.973Z,102577.91
2022-12-01T17:44:22.698Z,102575.44
2022-12-01T17:46:50.480Z,102567.69
2022-12-01T17:49:19.677Z,102559.66
2022-12-01T17:51:47.414Z,102565.34
2022-12-01T17:54:15.223Z,102570.97
2022-12-01T17:56:43.008Z,102561.00
2022-12-01T17:59:10.860Z,102581.69
2022-12-01T18:01:39.599Z,102571.94
2022-12-01T18:04:07.615Z,102571.22
2022-12-01T18:06:36.973Z,102579.91
2022-12-01T18:09:04.914Z,102566.25
2022-12-01T18:11:32.901Z,102570.47
2022-12-01T18:14:01.965Z,102571.56
2022-12-01T18:16:31.877Z,102574.56
2022-12-01T18:19:01.113Z,102580.47
2022-12-01T18:21:29.689Z,102577.19
2022-12-01T18:24:01.077Z,102573.38
2022-12-01T18:26:30.289Z,102561.41
2022-12-01T18:29:00.584Z,102558.38
2022-12-01T18:31:29.927Z,102566.09
2022-12-01T18:34:02.620Z,102556.50
2022-12-01T18:36:31.317Z,102557.22
2022-12-01T18:39:01.634Z,102563.91
2022-12-01T18:41:29.890Z,102546.03
2022-12-01T18:43:57.704Z,102544.78
2022-12-01T18:46:25.683Z,102526.66
2022-12-01T18:49:00.395Z,102525.41
2022-12-01T18:51:28.839Z,102517.25
2022-12-01T18:53:57.304Z,102503.38
2022-12-01T18:56:29.888Z,102508.22
2022-12-01T18:58:58.731Z,102503.00
2022-12-01T19:01:28.930Z,102505.97
2022-12-01T19:03:57.838Z,102499.44
2022-12-01T19:06:26.862Z,102500.03
2022-12-01T19:08:55.454Z,102506.63
2022-12-01T19:11:23.286Z,102501.28
2022-12-01T19:13:52.375Z,102517.53
2022-12-01T19:16:20.895Z,102493.09
2022-12-01T19:18:48.800Z,102509.63
2022-12-01T19:21:18.684Z,102500.56
2022-12-01T19:23:47.185Z,102509.44
2022-12-01T19:26:17.702Z,102499.91
2022-12-01T19:28:46.393Z,102506.59
2022-12-01T19:31:18.205Z,102511.28
2022-12-01T19:33:46.105Z,102508.03
2022-12-01T19:36:15.882Z,102512.56
2022-12-01T19:38:44.636Z,102521.09
2022-12-01T19:41:13.626Z,102526.28
2022-12-01T19:43:42.179Z,102524.28
2022-12-01T19:46:12.746Z,102530.84
2022-12-01T19:48:42.289Z,102525.59
2022-12-01T19:51:17.520Z,102520.34
2022-12-01T19:53:45.292Z,102525.59
2022-12-01T19:56:13.833Z,102521.47
2022-12-01T19:58:41.931Z,102521.16
2022-12-01T20:01:12.497Z,102516.50
2022-12-01T20:03:42.837Z,102507.75
2022-12-01T20:06:12.314Z,102521.47
2022-12-01T20:08:40.723Z,102522.44
2022-12-01T20:11:09.293Z,102529.13
2022-12-01T20:13:38.758Z,102528.78
2022-12-01T20:16:08.685Z,102538.88
2022-12-01T20:18:37.225Z,102534.66
2022-12-01T20:21:08.606Z,102534.59
2022-12-01T20:23:37.314Z,102530.28
2022-12-01T20:26:07.093Z,102531.31
2022-12-01T20:28:36.099Z,102525.34
2022-12-01T20:31:04.977Z,102525.28
2022-12-01T20:33:32.767Z,102534.66
2022-12-01T20:36:00.579Z,102540.00
2022-12-01T20:38:29.711Z,102527.06
2022-12-01T20:40:57.474Z,102525.22
2022-12-01T20:43:25.165Z,102522.63
2022-12-01T20:45:53.043Z,102522.03
2022-12-01T20:48:20.869Z,102535.19
2022-12-01T20:50:48.912Z,102547.59
2022-12-01T20:53:17.073Z,102548.28
2022-12-01T20:55:46.757Z,102546.91
2022-12-01T20:58:14.610Z,102551.31
2022-12-01T21:00:44.206Z,102568.53
2022-12-01T21:03:12.972Z,102569.69
2022-12-01T21:05:42.404Z,102587.63
2022-12-01T21:08:13.059Z,102569.59
2022-12-01T21:10:42.552Z,102559.59
2022-12-01T21:13:36.779Z,102559.66
2022-12-01T21:16:10.806Z,102559.56
2022-12-01T21:18:50.454Z,102562.66
2022-12-01T21:21:24.384Z,102558.06
2022-12-01T21:24:03.699Z,102557.53
2022-12-01T21:26:31.425Z,102549.78
2022-12-01T21:29:01.943Z,102555.88
2022-12-01T21:31:29.713Z,102552.56
2022-12-01T21:33:57.545Z,102544.19
2022-12-01T21:36:29.980Z,102543.75
2022-12-01T21:39:09.443Z,102541.31
2022-12-01T21:41:37.889Z,102536.53
2022-12-01T21:44:14.844Z,102530.06
2022-12-01T21:46:42.729Z,102526.44
2022-12-01T21:49:14.384Z,102527.28
2022-12-01T21:51:42.179Z,102514.34
2022-12-01T21:54:14.888Z,102510.06
2022-12-01T21:56:43.029Z,102504.47
2022-12-01T21:59:19.099Z,102497.16
2022-12-01T22:01:47.523Z,102502.59
2022-12-01T22:04:21.983Z,102494.09
2022-12-01T22:06:50.900Z,102486.25
2022-12-01T22:09:24.420Z,102493.44
2022-12-01T22:11:54.860Z,102487.97
2022-12-01T22:14:28.701Z,102486.94
2022-12-01T22:16:58.448Z,102488.75
2022-12-01T22:19:29.360Z,102492.47
2022-12-01T22:22:15.646Z,102497.66
2022-12-01T22:24:44.577Z,102498.00
2022-12-01T22:27:30.490Z,102502.81
2022-12-01T22:30:02.391Z,102508.69
2022-12-01T22:32:35.051Z,102505.84
2022-12-01T22:35:19.619Z,102514.75
2022-12-01T22:37:49.571Z,102519.03
2022-12-01T22:40:32.868Z,102514.44
2022-12-01T22:43:13.824Z,102518.66
2022-12-01T22:45:43.555Z,102496.34
2022-12-01T22:48:27.464Z,102500.06
2022-12-01T22:50:55.613Z,102507.50
2022-12-01T22:53:29.279Z,102519.13
2022-12-01T22:56:01.163Z,102529.50
2022-12-01T22:58:31.672Z,102530.00
2022-12-01T23:01:03.626Z,102503.81
2022-12-01T23:03:32.392Z,102509.16
2022-12-01T23:06:00.124Z,102513.06
2022-12-01T23:08:27.869Z,102515.19
2022-12-01T23:10:55.738Z,102525.06
2022-12-01T23:13:25.095Z,102522.94
2022-12-01T23:15:54.457Z,102499.44
2022-12-01T23:18:25.153Z,102516.53
2022-12-01T23:20:54.532Z,102501.41
2022-12-01T23:23:27.349Z,102512.88
2022-12-01T23:25:55.715Z,102508.19
2022-12-01T23:28:23.685Z,102512.38
2022-12-01T23:30:55.708Z,102493.56
2022-12-01T23:33:26.017Z,102491.34
2022-12-01T23:35:56.999Z,102495.09
2022-12-01T23:38:27.348Z,102494.91
2022-12-01T23:40:58.323Z,102492.22
2022-12-01T23:43:29.232Z,102492.53
2022-12-01T23:46:04.064Z,102486.66
2022-12-01T23:48:37.057Z,102486.28
2022-12-01T23:51:05.938Z,102492.16
2022-12-01T23:53:34.133Z,102479.25
2022-12-01T23:56:06.583Z,102485.97
2022-12-01T23:58:35.145Z,102478.56
